Time;durP1;ratioP1;P1;durP2;ratioP2;P2;SDS_P1;SDS_P2;PMS_P1;PMS_P2;Temp;Humidity;BMP_temperature;BMP_pressure;BME280_temperature;BME280_humidity;BME280_pressure;Samples;Min_cycle;Max_cycle;Signal;HPM_P1;HPM_P2
2021/03/11 00:00:26;;;;;;;30.03;17.17;;;7.80;99.90;;;;;;5093002;28;20202;-73
2021/03/11 00:02:52;;;;;;;32.33;16.30;;;7.80;99.90;;;;;;5094279;28;20201;-73
2021/03/11 00:05:21;;;;;;;26.93;15.00;;;7.80;99.90;;;;;;5093325;28;20196;-73
2021/03/11 00:07:47;;;;;;;28.90;16.10;;;7.70;99.90;;;;;;5092198;28;20193;-73
2021/03/11 00:10:14;;;;;;;27.40;14.47;;;7.70;99.90;;;;;;5095011;28;20311;-73
2021/03/11 00:12:43;;;;;;;23.37;14.70;;;7.70;99.90;;;;;;5094809;28;20279;-73
2021/03/11 00:15:13;;;;;;;26.17;14.87;;;7.80;99.90;;;;;;5094793;28;20275;-73
2021/03/11 00:17:40;;;;;;;27.87;15.13;;;7.90;99.90;;;;;;5092730;28;20288;-73
2021/03/11 00:20:08;;;;;;;26.17;13.87;;;7.90;99.90;;;;;;5082813;28;20280;-73
2021/03/11 00:22:34;;;;;;;26.27;14.33;;;8.00;99.90;;;;;;5076867;28;20196;-74
2021/03/11 00:25:01;;;;;;;24.77;14.33;;;8.00;99.90;;;;;;5092415;28;20203;-73
2021/03/11 00:27:27;;;;;;;25.20;14.30;;;8.00;99.90;;;;;;5093169;28;20204;-73
2021/03/11 00:29:54;;;;;;;21.03;13.70;;;8.00;99.90;;;;;;5082847;28;20569;-73
2021/03/11 00:32:20;;;;;;;25.93;14.37;;;8.10;99.90;;;;;;5079837;28;20193;-73
2021/03/11 00:34:47;;;;;;;22.87;13.60;;;8.10;99.90;;;;;;5093468;28;20204;-73
2021/03/11 00:37:13;;;;;;;25.13;13.20;;;8.10;99.90;;;;;;5086614;28;20220;-73
2021/03/11 00:39:39;;;;;;;22.30;13.83;;;8.10;99.90;;;;;;5074785;28;20291;-74
2021/03/11 00:42:06;;;;;;;23.07;13.43;;;8.10;99.90;;;;;;5075745;28;20199;-73
2021/03/11 00:44:33;;;;;;;24.17;13.63;;;8.10;99.90;;;;;;5063724;28;20188;-73
2021/03/11 00:47:00;;;;;;;22.20;13.73;;;8.10;99.90;;;;;;5092771;28;20675;-73
2021/03/11 00:49:26;;;;;;;21.43;13.47;;;8.20;99.90;;;;;;5074516;28;20284;-73
2021/03/11 00:51:53;;;;;;;21.40;13.53;;;8.20;99.90;;;;;;5074370;28;20288;-73
2021/03/11 00:54:19;;;;;;;22.47;13.63;;;8.20;99.90;;;;;;5094580;28;20218;-73
2021/03/11 00:56:48;;;;;;;23.90;14.30;;;8.20;99.90;;;;;;5094719;28;20232;-73
2021/03/11 00:59:14;;;;;;;20.90;12.90;;;8.20;99.90;;;;;;5074851;28;20197;-73
2021/03/11 01:01:41;;;;;;;26.70;14.23;;;8.30;99.90;;;;;;5089313;28;20580;-73
2021/03/11 01:04:08;;;;;;;23.03;13.67;;;8.30;99.90;;;;;;5094645;28;20672;-73
2021/03/11 01:06:34;;;;;;;21.43;13.37;;;8.40;99.90;;;;;;5080074;28;20204;-74
2021/03/11 01:09:01;;;;;;;25.03;14.10;;;8.40;99.90;;;;;;5073949;28;20205;-73
2021/03/11 01:11:27;;;;;;;26.37;15.40;;;8.40;99.90;;;;;;5087086;28;20214;-73
2021/03/11 01:13:54;;;;;;;28.77;15.80;;;8.30;99.90;;;;;;5085681;28;20199;-73
2021/03/11 01:16:20;;;;;;;25.30;15.17;;;8.30;99.90;;;;;;5073830;28;20217;-74
2021/03/11 01:18:47;;;;;;;30.50;17.47;;;8.20;99.90;;;;;;5093918;28;20192;-73
2021/03/11 01:21:14;;;;;;;30.97;16.73;;;8.20;99.90;;;;;;5094239;28;20195;-73
2021/03/11 01:23:40;;;;;;;27.20;16.87;;;8.20;99.90;;;;;;5074882;28;20205;-73
2021/03/11 01:26:06;;;;;;;27.83;15.90;;;8.20;99.90;;;;;;5073979;28;20235;-73
2021/03/11 01:28:33;;;;;;;25.40;15.17;;;8.10;99.90;;;;;;5088588;28;20680;-74
2021/03/11 01:30:59;;;;;;;33.20;17.63;;;8.10;99.90;;;;;;5081797;28;20201;-73
2021/03/11 01:33:26;;;;;;;30.30;18.17;;;8.10;99.90;;;;;;5073645;28;20203;-73
2021/03/11 01:35:52;;;;;;;28.10;16.70;;;8.20;99.90;;;;;;5083755;28;20295;-74
2021/03/11 01:38:19;;;;;;;31.57;18.07;;;8.20;99.90;;;;;;5093809;28;20203;-73
2021/03/11 01:40:46;;;;;;;33.83;18.70;;;8.20;99.90;;;;;;5084672;28;20356;-73
2021/03/11 01:43:12;;;;;;;33.43;19.10;;;8.30;99.90;;;;;;5077022;28;20245;-74
2021/03/11 01:45:38;;;;;;;37.20;20.20;;;8.30;99.90;;;;;;5093593;28;20656;-74
2021/03/11 01:48:06;;;;;;;33.00;20.47;;;8.30;99.90;;;;;;5091214;28;20216;-74
2021/03/11 01:50:32;;;;;;;39.60;20.50;;;8.30;99.90;;;;;;5073542;28;20197;-73
2021/03/11 01:52:59;;;;;;;35.73;20.47;;;8.40;99.90;;;;;;5074593;28;20206;-73
2021/03/11 01:55:28;;;;;;;35.87;19.97;;;8.40;99.90;;;;;;5093492;28;20236;-73
2021/03/11 01:57:55;;;;;;;35.57;19.33;;;8.40;99.90;;;;;;5075594;28;20304;-73
2021/03/11 02:00:22;;;;;;;33.17;19.07;;;8.40;99.90;;;;;;5073379;28;20197;-73
2021/03/11 02:02:50;;;;;;;36.40;19.33;;;8.40;99.90;;;;;;5089139;28;20550;-73
2021/03/11 02:05:18;;;;;;;35.87;19.60;;;8.40;99.90;;;;;;5093233;28;20286;-73
2021/03/11 02:07:46;;;;;;;34.53;19.97;;;8.40;99.90;;;;;;5078097;28;20201;-73
2021/03/11 02:10:17;;;;;;;36.90;20.47;;;8.40;99.90;;;;;;5082926;28;20202;-73
2021/03/11 02:12:53;;;;;;;38.13;20.40;;;8.40;99.90;;;;;;5093436;28;20334;-72
2021/03/11 02:15:24;;;;;;;40.80;20.43;;;8.50;99.90;;;;;;5082558;28;20227;-73
2021/03/11 02:17:59;;;;;;;41.07;22.60;;;8.50;99.90;;;;;;5072853;28;20319;-73
2021/03/11 02:20:40;;;;;;;41.27;21.17;;;8.50;99.90;;;;;;5084197;28;20234;-73
2021/03/11 02:23:38;;;;;;;43.83;21.70;;;8.50;99.90;;;;;;5093277;28;20202;-73
2021/03/11 02:26:16;;;;;;;39.63;20.47;;;8.50;99.90;;;;;;5060416;28;20203;-73
2021/03/11 02:28:57;;;;;;;38.90;21.77;;;8.40;99.90;;;;;;5073380;28;20303;-73
2021/03/11 02:31:25;;;;;;;39.93;20.90;;;8.40;99.90;;;;;;5073392;28;20207;-73
2021/03/11 02:33:52;;;;;;;39.10;21.13;;;8.40;99.90;;;;;;5086247;28;20197;-73
2021/03/11 02:36:20;;;;;;;38.63;21.03;;;8.40;99.90;;;;;;5091124;28;20218;-73
2021/03/11 02:38:47;;;;;;;38.37;21.47;;;8.40;99.90;;;;;;5092978;28;20292;-73
2021/03/11 02:41:17;;;;;;;40.03;21.70;;;8.40;99.90;;;;;;5081330;28;20199;-73
2021/03/11 02:43:46;;;;;;;41.87;22.27;;;8.40;99.90;;;;;;5079670;28;20199;-73
2021/03/11 02:46:14;;;;;;;41.27;21.73;;;8.50;99.90;;;;;;5092637;28;20196;-73
2021/03/11 02:48:41;;;;;;;43.70;22.50;;;8.50;99.90;;;;;;5086592;28;20307;-73
2021/03/11 02:51:09;;;;;;;40.43;21.13;;;8.50;99.90;;;;;;5072803;28;20207;-73
2021/03/11 02:53:36;;;;;;;40.77;20.90;;;8.50;99.90;;;;;;5078149;28;20219;-73
2021/03/11 02:56:03;;;;;;;42.30;22.07;;;8.50;99.90;;;;;;5092547;28;20197;-73
2021/03/11 02:58:30;;;;;;;42.03;21.70;;;8.50;99.90;;;;;;5092944;28;20256;-73
2021/03/11 03:00:57;;;;;;;41.90;22.37;;;8.50;99.90;;;;;;5092847;28;20637;-73
2021/03/11 03:03:24;;;;;;;41.00;21.10;;;8.60;99.90;;;;;;5092628;28;20195;-73
2021/03/11 03:05:51;;;;;;;42.30;21.33;;;8.60;99.90;;;;;;5092733;28;20559;-73
2021/03/11 03:08:19;;;;;;;42.13;20.97;;;8.60;99.90;;;;;;5074492;28;20286;-73
2021/03/11 03:10:47;;;;;;;44.30;21.60;;;8.60;99.90;;;;;;5086007;28;20200;-73
2021/03/11 03:13:16;;;;;;;35.43;19.93;;;8.60;99.90;;;;;;5090634;28;20199;-73
2021/03/11 03:15:43;;;;;;;36.47;19.77;;;8.60;99.90;;;;;;5091142;28;20260;-73
2021/03/11 03:18:11;;;;;;;38.43;19.73;;;8.60;99.90;;;;;;5092434;28;20219;-73
2021/03/11 03:20:39;;;;;;;38.87;20.37;;;8.60;99.90;;;;;;5090984;28;20607;-73
2021/03/11 03:23:07;;;;;;;35.93;20.13;;;8.60;99.90;;;;;;5091734;28;20623;-73
2021/03/11 03:25:34;;;;;;;34.70;19.27;;;8.70;99.90;;;;;;5092537;28;20616;-73
2021/03/11 03:28:01;;;;;;;34.20;18.00;;;8.70;99.90;;;;;;5091790;28;20282;-73
2021/03/11 03:30:27;;;;;;;31.40;16.80;;;8.70;99.90;;;;;;5092141;28;20207;-73
2021/03/11 03:32:54;;;;;;;31.23;18.07;;;8.80;99.90;;;;;;5091961;28;20662;-73
2021/03/11 03:35:22;;;;;;;30.03;17.20;;;8.80;99.90;;;;;;5095047;28;20201;-73
2021/03/11 03:37:53;;;;;;;27.23;16.87;;;8.80;99.90;;;;;;5096200;28;20231;-73
2021/03/11 03:40:23;;;;;;;27.70;16.50;;;8.90;99.90;;;;;;5094729;28;20200;-73
2021/03/11 03:42:55;;;;;;;26.17;15.97;;;8.90;99.90;;;;;;5095729;28;20204;-73
2021/03/11 03:45:26;;;;;;;29.30;16.63;;;8.90;99.90;;;;;;5094559;28;20200;-73
2021/03/11 03:47:53;;;;;;;28.90;16.40;;;8.90;99.90;;;;;;5092185;28;20195;-73
2021/03/11 03:50:20;;;;;;;28.57;16.10;;;8.90;99.90;;;;;;5095101;28;20245;-73
2021/03/11 03:52:49;;;;;;;27.20;16.37;;;9.00;99.90;;;;;;5088422;28;20218;-73
2021/03/11 03:55:16;;;;;;;29.80;16.17;;;9.00;99.90;;;;;;5094831;28;20196;-73
2021/03/11 03:57:48;;;;;;;28.90;15.93;;;8.90;99.90;;;;;;5095437;28;20591;-73
2021/03/11 04:00:20;;;;;;;27.67;15.37;;;9.00;99.90;;;;;;5094681;28;20199;-73
2021/03/11 04:02:48;;;;;;;28.93;15.93;;;9.10;99.90;;;;;;5095148;28;20199;-73
2021/03/11 04:05:15;;;;;;;31.87;16.63;;;9.10;99.90;;;;;;5085903;28;20215;-73
2021/03/11 04:07:45;;;;;;;27.77;15.57;;;9.10;99.90;;;;;;5095099;28;20204;-73
2021/03/11 04:10:13;;;;;;;24.67;15.20;;;9.10;99.90;;;;;;5092897;28;20617;-74
2021/03/11 04:12:40;;;;;;;31.23;15.70;;;9.10;99.90;;;;;;5094875;28;20196;-73
2021/03/11 04:15:08;;;;;;;27.13;16.10;;;9.10;99.90;;;;;;5094762;28;20295;-73
2021/03/11 04:17:36;;;;;;;25.17;14.13;;;9.20;99.90;;;;;;5094491;28;20309;-73
2021/03/11 04:20:05;;;;;;;27.57;15.60;;;9.20;99.90;;;;;;5095360;28;20201;-73
2021/03/11 04:22:32;;;;;;;25.40;15.53;;;9.20;99.90;;;;;;5094200;28;20287;-73
2021/03/11 04:24:59;;;;;;;28.40;15.50;;;9.20;99.90;;;;;;5094599;28;20479;-74
2021/03/11 04:27:27;;;;;;;25.93;14.33;;;9.20;99.90;;;;;;5094302;28;20215;-73
2021/03/11 04:29:54;;;;;;;24.07;13.20;;;9.30;99.90;;;;;;5094830;28;20201;-73
2021/03/11 04:32:22;;;;;;;25.97;14.67;;;9.40;99.90;;;;;;5093961;28;20731;-73
2021/03/11 04:34:48;;;;;;;26.40;14.40;;;9.40;99.90;;;;;;5093965;28;20560;-73
2021/03/11 04:37:15;;;;;;;24.90;14.27;;;9.40;99.90;;;;;;5094280;28;20616;-73
2021/03/11 04:39:42;;;;;;;30.00;14.53;;;9.40;99.90;;;;;;5094938;28;20199;-73
2021/03/11 04:42:10;;;;;;;19.63;12.40;;;9.50;99.90;;;;;;5093928;28;20203;-73
2021/03/11 04:44:38;;;;;;;26.10;12.70;;;9.50;99.90;;;;;;5094440;28;20211;-73
2021/03/11 04:47:04;;;;;;;18.30;11.47;;;9.50;99.90;;;;;;5091252;28;20557;-73
2021/03/11 04:49:32;;;;;;;23.83;12.70;;;9.60;99.90;;;;;;5084293;28;20297;-73
2021/03/11 04:52:00;;;;;;;22.57;12.57;;;9.70;99.90;;;;;;5093184;28;20235;-73
2021/03/11 04:54:26;;;;;;;21.67;12.00;;;9.70;99.90;;;;;;5094953;28;20537;-73
2021/03/11 04:56:53;;;;;;;18.37;11.17;;;9.80;99.90;;;;;;5093999;28;20221;-74
2021/03/11 04:59:20;;;;;;;19.23;11.13;;;9.80;99.90;;;;;;5093720;28;20205;-73
2021/03/11 05:01:50;;;;;;;17.73;10.63;;;10.00;99.90;;;;;;5094090;28;20284;-74
2021/03/11 05:04:18;;;;;;;16.80;10.30;;;10.00;99.90;;;;;;5093195;28;20198;-73
2021/03/11 05:06:44;;;;;;;16.10;10.03;;;10.00;99.90;;;;;;5093978;28;20193;-74
2021/03/11 05:09:11;;;;;;;13.00;8.97;;;10.00;99.90;;;;;;5092994;28;20737;-74
2021/03/11 05:11:37;;;;;;;13.17;8.37;;;10.10;99.90;;;;;;5094321;28;20197;-73
2021/03/11 05:14:03;;;;;;;13.70;8.63;;;10.20;99.90;;;;;;5093339;28;20203;-73
2021/03/11 05:16:30;;;;;;;13.03;8.00;;;10.30;99.90;;;;;;5094002;28;20315;-73
2021/03/11 05:18:57;;;;;;;11.37;6.93;;;10.40;99.90;;;;;;5093665;28;20560;-73
2021/03/11 05:21:23;;;;;;;12.52;8.63;;;10.40;99.90;;;;;;5078676;28;20432;-73
2021/03/11 05:23:50;;;;;;;16.07;8.10;;;10.50;99.90;;;;;;5093375;28;20202;-73
2021/03/11 05:26:17;;;;;;;12.33;7.70;;;10.50;99.90;;;;;;5093571;28;20198;-73
2021/03/11 05:28:43;;;;;;;12.80;7.87;;;10.60;99.90;;;;;;5093415;28;20234;-73
2021/03/11 05:31:09;;;;;;;9.57;6.90;;;10.60;99.90;;;;;;5083573;28;20218;-73
2021/03/11 05:33:35;;;;;;;15.40;7.90;;;10.50;99.90;;;;;;5092185;28;20201;-73
2021/03/11 05:36:03;;;;;;;11.27;7.53;;;10.40;99.90;;;;;;5094097;28;20375;-73
2021/03/11 05:38:30;;;;;;;15.20;8.10;;;10.40;99.90;;;;;;5092898;28;20227;-73
2021/03/11 05:40:56;;;;;;;15.07;8.73;;;10.40;99.90;;;;;;5092568;28;20215;-73
2021/03/11 05:43:23;;;;;;;13.33;8.17;;;10.40;99.90;;;;;;5093594;28;20204;-73
2021/03/11 05:45:50;;;;;;;13.17;7.50;;;10.40;99.90;;;;;;5093044;28;20301;-73
2021/03/11 05:48:18;;;;;;;12.60;8.40;;;10.40;99.90;;;;;;5093491;28;20246;-73
2021/03/11 05:50:44;;;;;;;11.73;7.40;;;10.40;99.90;;;;;;5091980;28;20207;-73
2021/03/11 05:53:13;;;;;;;12.93;7.93;;;10.40;99.90;;;;;;5084847;28;20304;-73
2021/03/11 05:55:40;;;;;;;12.43;7.60;;;10.30;99.90;;;;;;5092660;28;20198;-73
2021/03/11 05:58:08;;;;;;;10.57;6.80;;;10.30;99.90;;;;;;5092676;28;20221;-73
2021/03/11 06:00:34;;;;;;;12.70;7.27;;;10.40;99.90;;;;;;5092058;28;20616;-73
2021/03/11 06:03:02;;;;;;;13.50;7.20;;;10.50;99.90;;;;;;5081977;28;20212;-72
2021/03/11 06:05:30;;;;;;;9.23;6.57;;;10.50;99.90;;;;;;5092297;28;20208;-72
2021/03/11 06:07:57;;;;;;;10.07;6.47;;;10.50;99.90;;;;;;5093356;28;20231;-73
2021/03/11 06:10:25;;;;;;;10.83;6.40;;;10.50;99.90;;;;;;5091130;28;20210;-72
2021/03/11 06:12:53;;;;;;;10.98;6.78;;;10.50;99.90;;;;;;5092258;28;20497;-72
2021/03/11 06:15:24;;;;;;;9.67;5.00;;;10.50;99.90;;;;;;5091733;28;20293;-73
2021/03/11 06:17:53;;;;;;;10.43;6.20;;;10.50;99.90;;;;;;5089698;28;20247;-73
2021/03/11 06:20:19;;;;;;;10.13;5.50;;;10.60;99.90;;;;;;5089266;28;20209;-73
2021/03/11 06:22:47;;;;;;;15.60;6.00;;;10.60;99.90;;;;;;5092587;28;20209;-73
2021/03/11 06:25:15;;;;;;;10.20;5.40;;;10.60;99.90;;;;;;5088446;28;20208;-73
2021/03/11 06:27:43;;;;;;;11.37;5.07;;;10.60;99.90;;;;;;5087877;28;20289;-72
2021/03/11 06:30:30;;;;;;;11.97;4.90;;;10.70;99.90;;;;;;5089388;28;20300;-73
2021/03/11 06:32:56;;;;;;;9.80;4.33;;;10.70;99.90;;;;;;5089761;28;20516;-73
2021/03/11 06:35:23;;;;;;;8.93;4.57;;;10.70;99.90;;;;;;5083970;28;20195;-73
2021/03/11 06:37:49;;;;;;;11.13;4.10;;;10.70;99.90;;;;;;5085745;28;20229;-73
2021/03/11 06:40:19;;;;;;;5.30;3.03;;;10.70;99.90;;;;;;5091759;28;20225;-73
2021/03/11 06:42:47;;;;;;;6.77;3.10;;;10.70;99.90;;;;;;5075713;28;20289;-73
2021/03/11 06:45:22;;;;;;;9.53;3.40;;;10.80;99.90;;;;;;5086899;28;20203;-74
2021/03/11 06:47:49;;;;;;;6.63;3.03;;;10.90;99.90;;;;;;5083092;28;20202;-73
2021/03/11 06:50:15;;;;;;;6.63;2.93;;;11.00;99.90;;;;;;5088864;28;20255;-73
2021/03/11 06:53:00;;;;;;;8.53;4.00;;;11.10;99.90;;;;;;5091300;28;20210;-73
2021/03/11 06:55:27;;;;;;;4.77;2.83;;;11.20;99.90;;;;;;5078875;28;20201;-73
2021/03/11 06:57:54;;;;;;;5.87;2.60;;;11.20;99.90;;;;;;5090864;28;20219;-73
2021/03/11 07:00:22;;;;;;;7.50;2.90;;;11.20;99.90;;;;;;5091223;28;20206;-73
2021/03/11 07:02:50;;;;;;;4.10;2.40;;;11.30;99.90;;;;;;5089441;28;20227;-73
2021/03/11 07:05:17;;;;;;;6.03;2.30;;;11.40;99.90;;;;;;5088610;28;20625;-73
2021/03/11 07:07:43;;;;;;;8.50;2.47;;;11.50;99.90;;;;;;5085020;28;20203;-73
2021/03/11 07:10:23;;;;;;;7.23;2.07;;;11.50;99.90;;;;;;5095521;28;20206;-73
2021/03/11 07:12:50;;;;;;;6.70;2.60;;;11.60;99.90;;;;;;5096174;28;20703;-73
2021/03/11 07:15:19;;;;;;;11.53;2.57;;;11.60;99.90;;;;;;5093465;28;20210;-73
2021/03/11 07:17:45;;;;;;;12.30;2.40;;;11.60;99.90;;;;;;5073147;28;20363;-73
2021/03/11 07:20:13;;;;;;;7.03;1.80;;;11.70;99.90;;;;;;5092465;28;20348;-73
2021/03/11 07:22:41;;;;;;;6.63;2.10;;;11.80;99.90;;;;;;5095230;28;20237;-73
2021/03/11 07:25:29;;;;;;;6.57;2.20;;;11.80;99.90;;;;;;5096167;28;20292;-73
2021/03/11 07:27:56;;;;;;;10.03;1.97;;;11.90;99.90;;;;;;5076950;28;20210;-73
2021/03/11 07:30:25;;;;;;;7.20;2.23;;;11.90;99.90;;;;;;5076440;28;20201;-73
2021/03/11 07:32:58;;;;;;;8.37;1.73;;;11.90;99.90;;;;;;5069789;28;20914;-73
2021/03/11 07:35:27;;;;;;;8.10;2.07;;;11.90;99.90;;;;;;5085236;28;20301;-74
2021/03/11 07:37:56;;;;;;;10.00;1.97;;;11.90;99.90;;;;;;5087406;28;20221;-74
2021/03/11 07:40:23;;;;;;;7.43;1.93;;;12.00;99.90;;;;;;5086718;28;20208;-73
2021/03/11 07:42:50;;;;;;;15.07;2.73;;;12.00;99.90;;;;;;5090561;28;20205;-74
2021/03/11 07:45:17;;;;;;;17.37;2.67;;;11.90;99.90;;;;;;5093059;28;20657;-74
2021/03/11 07:47:44;;;;;;;17.37;2.90;;;11.90;99.90;;;;;;5090540;28;20226;-74
2021/03/11 07:50:13;;;;;;;15.20;2.70;;;11.90;99.90;;;;;;5089727;28;20202;-74
2021/03/11 07:52:40;;;;;;;18.43;2.73;;;12.00;99.90;;;;;;5085095;28;20255;-73
2021/03/11 07:55:09;;;;;;;21.93;3.57;;;12.10;99.90;;;;;;5086751;28;20190;-73
2021/03/11 07:57:39;;;;;;;17.80;3.10;;;12.20;99.90;;;;;;5089522;28;20694;-74
2021/03/11 08:00:07;;;;;;;24.23;3.20;;;12.20;99.90;;;;;;5086475;28;20205;-73
2021/03/11 08:02:36;;;;;;;31.77;4.47;;;12.10;99.90;;;;;;5087845;28;20203;-74
2021/03/11 08:05:05;;;;;;;21.73;3.83;;;12.10;99.90;;;;;;5087826;28;20200;-73
2021/03/11 08:07:32;;;;;;;24.67;4.57;;;12.30;99.90;;;;;;5087952;28;20195;-73
2021/03/11 08:09:59;;;;;;;25.23;4.37;;;12.40;99.90;;;;;;5088975;28;20278;-74
2021/03/11 08:12:34;;;;;;;31.27;5.63;;;12.30;99.90;;;;;;5092768;28;20225;-73
2021/03/11 08:15:02;;;;;;;28.03;4.93;;;12.40;99.90;;;;;;5087798;28;20285;-74
2021/03/11 08:17:46;;;;;;;35.90;5.13;;;12.50;99.90;;;;;;5091086;28;20221;-74
2021/03/11 08:20:39;;;;;;;31.80;5.57;;;12.60;99.90;;;;;;5090877;28;20300;-74
2021/03/11 08:23:06;;;;;;;36.33;5.57;;;12.70;99.90;;;;;;5090204;28;20349;-73
2021/03/11 08:25:46;;;;;;;25.07;4.30;;;12.70;99.90;;;;;;5093608;28;20190;-73
2021/03/11 08:28:42;;;;;;;32.10;4.53;;;12.70;99.90;;;;;;5085679;28;20198;-73
2021/03/11 08:31:10;;;;;;;22.47;4.23;;;12.70;99.90;;;;;;5005126;28;20201;-74
2021/03/11 08:33:45;;;;;;;28.37;4.33;;;12.60;99.90;;;;;;5071003;28;20292;-74
2021/03/11 08:36:33;;;;;;;25.90;4.33;;;12.60;99.90;;;;;;5085519;28;20196;-73
2021/03/11 08:39:00;;;;;;;25.17;4.33;;;12.50;99.90;;;;;;5082951;28;20202;-73
2021/03/11 08:41:34;;;;;;;23.43;4.80;;;12.40;99.90;;;;;;5081913;28;20206;-73
2021/03/11 08:44:03;;;;;;;28.40;3.73;;;12.50;99.90;;;;;;5087404;28;20563;-73
2021/03/11 08:46:52;;;;;;;18.30;3.60;;;12.40;99.90;;;;;;5089905;28;20556;-73
2021/03/11 08:49:36;;;;;;;24.90;3.77;;;12.50;99.90;;;;;;5089664;28;20573;-74
2021/03/11 08:52:04;;;;;;;20.60;3.30;;;12.50;99.90;;;;;;5087862;28;20211;-73
2021/03/11 08:54:31;;;;;;;23.30;3.83;;;12.40;99.90;;;;;;5092802;28;20199;-74
2021/03/11 08:56:57;;;;;;;26.67;4.13;;;12.40;99.90;;;;;;5081669;28;20338;-73
2021/03/11 08:59:44;;;;;;;21.00;3.90;;;12.50;99.90;;;;;;5087313;28;20292;-73
2021/03/11 09:02:31;;;;;;;24.03;3.33;;;12.50;99.90;;;;;;5085461;28;20273;-74
2021/03/11 09:04:58;;;;;;;24.53;4.17;;;12.80;99.90;;;;;;5086277;28;20279;-74
2021/03/11 09:07:35;;;;;;;27.40;5.13;;;13.00;99.90;;;;;;5089611;28;20666;-73
2021/03/11 09:10:03;;;;;;;24.67;4.17;;;13.10;99.90;;;;;;5090856;28;20192;-73
2021/03/11 09:12:37;;;;;;;29.70;5.17;;;12.90;99.90;;;;;;5088375;28;20218;-74
2021/03/11 09:15:06;;;;;;;24.70;4.47;;;12.70;99.90;;;;;;5089507;28;20337;-73
2021/03/11 09:17:34;;;;;;;28.60;4.57;;;12.60;99.90;;;;;;5090590;28;20219;-74
2021/03/11 09:20:04;;;;;;;24.73;4.07;;;12.70;99.90;;;;;;5087766;28;20195;-74
2021/03/11 09:22:32;;;;;;;27.63;4.80;;;12.70;99.90;;;;;;5090858;28;20218;-73
2021/03/11 09:25:11;;;;;;;27.83;4.30;;;12.70;99.90;;;;;;5086585;28;20195;-74
2021/03/11 09:27:39;;;;;;;37.33;5.10;;;12.80;99.90;;;;;;5090886;28;20255;-73
2021/03/11 09:30:08;;;;;;;24.83;4.27;;;12.80;99.90;;;;;;5088346;28;20191;-73
2021/03/11 09:32:36;;;;;;;27.90;4.13;;;13.00;99.90;;;;;;5088192;28;20290;-73
2021/03/11 09:35:05;;;;;;;16.33;3.47;;;13.10;99.90;;;;;;5087883;28;20678;-73
2021/03/11 09:37:56;;;;;;;19.47;3.50;;;13.00;99.90;;;;;;5089461;28;20210;-73
2021/03/11 09:40:28;;;;;;;24.17;4.10;;;13.20;99.90;;;;;;5088060;28;20281;-73
2021/03/11 09:43:07;;;;;;;25.43;4.40;;;13.30;99.90;;;;;;5089414;28;20194;-73
2021/03/11 09:45:36;;;;;;;27.40;4.70;;;13.50;99.90;;;;;;5090459;28;20200;-73
2021/03/11 09:48:05;;;;;;;22.67;3.57;;;13.50;99.90;;;;;;5085540;28;20196;-73
2021/03/11 09:50:32;;;;;;;17.87;3.53;;;13.30;99.90;;;;;;5087593;28;20226;-73
2021/03/11 09:53:00;;;;;;;22.70;3.97;;;13.30;99.90;;;;;;5089960;28;20201;-73
2021/03/11 09:55:28;;;;;;;24.50;4.07;;;13.30;99.90;;;;;;5089344;28;20244;-73
2021/03/11 09:57:54;;;;;;;19.00;3.93;;;13.30;99.90;;;;;;5088151;28;20582;-73
2021/03/11 10:00:21;;;;;;;27.53;4.47;;;13.50;99.90;;;;;;5088391;28;20230;-73
2021/03/11 10:02:48;;;;;;;26.27;4.37;;;13.60;99.90;;;;;;5089485;28;20652;-73
2021/03/11 10:05:14;;;;;;;21.63;4.40;;;13.90;99.90;;;;;;5086558;28;20725;-73
2021/03/11 10:07:41;;;;;;;26.50;4.00;;;13.90;99.90;;;;;;5089262;28;20205;-73
2021/03/11 10:10:13;;;;;;;20.23;4.00;;;14.10;99.90;;;;;;5087571;28;20197;-73
2021/03/11 10:12:41;;;;;;;25.37;3.80;;;14.20;99.90;;;;;;5087363;28;20205;-74
2021/03/11 10:15:10;;;;;;;18.53;3.70;;;14.10;99.90;;;;;;5086809;28;20206;-74
2021/03/11 10:17:37;;;;;;;17.47;3.37;;;14.00;99.90;;;;;;5089059;28;20229;-73
2021/03/11 10:20:22;;;;;;;31.23;5.17;;;13.80;99.90;;;;;;5086895;28;20198;-73
2021/03/11 10:22:49;;;;;;;25.43;4.20;;;13.30;99.90;;;;;;5089754;28;20195;-73
2021/03/11 10:25:17;;;;;;;22.90;4.13;;;13.10;99.90;;;;;;5085907;28;20195;-73
2021/03/11 10:27:45;;;;;;;18.10;3.47;;;13.40;99.90;;;;;;5088527;28;20286;-74
2021/03/11 10:30:16;;;;;;;25.70;3.47;;;13.80;99.90;;;;;;5087836;28;20197;-73
2021/03/11 10:32:44;;;;;;;21.27;3.83;;;14.30;99.90;;;;;;5089590;28;20207;-74
2021/03/11 10:35:12;;;;;;;16.07;2.80;;;14.80;99.90;;;;;;5089842;28;20199;-73
2021/03/11 10:37:40;;;;;;;13.50;3.20;;;15.00;99.90;;;;;;5086405;28;20214;-73
2021/03/11 10:40:11;;;;;;;20.43;3.30;;;15.60;99.90;;;;;;5085926;28;20199;-73
2021/03/11 10:42:42;;;;;;;17.47;3.20;;;15.70;99.90;;;;;;5090412;28;20195;-73
2021/03/11 10:45:11;;;;;;;17.53;2.87;;;15.60;99.90;;;;;;5093545;28;20281;-73
2021/03/11 10:47:37;;;;;;;18.23;3.10;;;15.80;99.90;;;;;;5093501;28;20194;-73
2021/03/11 10:50:15;;;;;;;21.03;3.27;;;16.10;99.90;;;;;;5094066;28;20333;-73
2021/03/11 10:52:47;;;;;;;20.03;3.20;;;16.10;99.90;;;;;;5093014;28;20289;-73
2021/03/11 10:55:29;;;;;;;18.17;3.20;;;15.40;99.90;;;;;;5092016;28;20596;-73
2021/03/11 10:57:56;;;;;;;20.30;3.43;;;14.80;99.90;;;;;;5094005;28;20233;-73
2021/03/11 11:00:26;;;;;;;24.47;3.60;;;14.80;99.90;;;;;;5091615;28;20285;-73
2021/03/11 11:02:56;;;;;;;24.97;3.63;;;15.00;99.90;;;;;;5093538;28;20199;-72
2021/03/11 11:05:23;;;;;;;18.97;3.80;;;14.80;99.90;;;;;;5092891;28;20603;-73
2021/03/11 11:07:50;;;;;;;17.27;3.27;;;14.90;99.90;;;;;;5091829;28;20191;-73
2021/03/11 11:10:18;;;;;;;17.30;3.37;;;15.10;99.90;;;;;;5095734;28;20244;-73
2021/03/11 11:12:45;;;;;;;18.87;3.57;;;15.20;99.90;;;;;;5094142;28;20233;-73
2021/03/11 11:15:13;;;;;;;13.27;3.17;;;15.20;99.90;;;;;;5091708;28;20274;-73
2021/03/11 11:17:40;;;;;;;16.40;3.30;;;15.50;99.90;;;;;;5089842;28;20281;-73
2021/03/11 11:20:08;;;;;;;24.13;3.60;;;15.30;99.90;;;;;;5093356;28;20201;-73
2021/03/11 11:22:35;;;;;;;15.77;2.93;;;15.30;99.90;;;;;;5093692;28;20240;-74
2021/03/11 11:25:01;;;;;;;18.90;3.50;;;15.00;99.90;;;;;;5088545;28;20203;-73
2021/03/11 11:27:28;;;;;;;16.73;3.40;;;15.60;99.90;;;;;;5094998;28;20195;-73
2021/03/11 11:29:54;;;;;;;19.87;3.23;;;16.00;99.90;;;;;;5081154;28;20357;-73
2021/03/11 11:32:23;;;;;;;14.97;2.67;;;16.10;99.90;;;;;;5092165;28;20277;-73
2021/03/11 11:34:50;;;;;;;13.70;2.60;;;15.60;99.90;;;;;;5093323;28;20198;-73
2021/03/11 11:37:16;;;;;;;9.70;2.53;;;15.40;99.90;;;;;;5095720;28;21197;-73
2021/03/11 11:39:43;;;;;;;15.63;3.67;;;15.40;99.90;;;;;;5093205;28;20210;-73
2021/03/11 11:42:11;;;;;;;18.40;3.37;;;15.40;99.90;;;;;;5094018;28;20299;-73
2021/03/11 11:44:38;;;;;;;25.07;2.73;;;15.30;99.90;;;;;;5091418;28;20194;-73
2021/03/11 11:47:06;;;;;;;19.40;2.50;;;15.40;99.90;;;;;;5093204;28;20195;-73
2021/03/11 11:49:34;;;;;;;20.07;3.23;;;15.70;99.90;;;;;;5092273;28;20552;-73
2021/03/11 11:52:01;;;;;;;13.57;2.77;;;15.40;99.90;;;;;;5090141;28;20291;-73
2021/03/11 11:54:27;;;;;;;14.10;2.20;;;15.40;99.90;;;;;;5092200;28;20387;-74
2021/03/11 11:56:54;;;;;;;17.50;3.00;;;15.30;99.90;;;;;;5093121;28;20291;-74
2021/03/11 11:59:20;;;;;;;10.53;2.60;;;15.30;99.90;;;;;;5094596;28;20284;-73
2021/03/11 12:01:47;;;;;;;15.97;2.50;;;15.10;99.90;;;;;;5094026;28;20285;-74
2021/03/11 12:04:15;;;;;;;16.63;3.07;;;15.10;99.90;;;;;;5094219;28;20191;-73
2021/03/11 12:06:42;;;;;;;16.03;3.07;;;15.30;99.90;;;;;;5094231;28;20762;-73
2021/03/11 12:09:09;;;;;;;12.13;2.57;;;15.30;99.90;;;;;;5094622;28;20252;-73
2021/03/11 12:11:35;;;;;;;19.87;2.77;;;15.10;99.90;;;;;;5093464;28;20197;-73
2021/03/11 12:14:02;;;;;;;19.57;3.13;;;14.90;99.90;;;;;;5094059;28;20198;-74
2021/03/11 12:16:29;;;;;;;14.40;3.03;;;14.70;99.90;;;;;;5094775;28;20190;-74
2021/03/11 12:18:55;;;;;;;11.30;2.53;;;14.70;99.90;;;;;;5093860;28;20313;-72
2021/03/11 12:21:21;;;;;;;14.47;3.17;;;14.80;99.90;;;;;;5094556;28;20620;-73
2021/03/11 12:23:49;;;;;;;14.53;2.70;;;14.80;99.90;;;;;;5093792;28;20198;-73
2021/03/11 12:26:17;;;;;;;15.10;3.00;;;14.80;99.90;;;;;;5094139;28;20195;-73
2021/03/11 12:28:44;;;;;;;17.00;3.00;;;14.90;99.90;;;;;;5094136;28;20199;-73
2021/03/11 12:31:11;;;;;;;20.03;2.83;;;14.70;99.90;;;;;;5094199;28;20209;-72
2021/03/11 12:33:38;;;;;;;18.63;2.60;;;14.60;99.90;;;;;;5091925;28;20201;-72
2021/03/11 12:36:06;;;;;;;13.67;2.83;;;14.50;99.90;;;;;;5094295;28;20270;-73
2021/03/11 12:38:33;;;;;;;17.30;2.80;;;14.40;99.90;;;;;;5085847;28;20219;-72
2021/03/11 12:41:00;;;;;;;15.00;3.23;;;14.10;99.90;;;;;;5093587;28;20201;-72
2021/03/11 12:43:27;;;;;;;19.63;2.83;;;14.20;99.90;;;;;;5093000;28;20739;-72
2021/03/11 12:45:53;;;;;;;15.93;2.60;;;14.30;99.90;;;;;;5092332;28;20202;-72